Time;durP1;ratioP1;P1;durP2;ratioP2;P2;SDS_P1;SDS_P2;PMS_P1;PMS_P2;Temp;Humidity;BMP_temperature;BMP_pressure;BME280_temperature;BME280_humidity;BME280_pressure;Samples;Min_cycle;Max_cycle;Signal;HPM_P1;HPM_P2
2023/05/17 00:01:43;;;;;;;10.15;3.45;;;12.60;66.40;;;;;;5029419;28;20048;-66
2023/05/17 00:04:09;;;;;;;10.75;3.63;;;12.60;66.40;;;;;;5024419;28;20515;-66
2023/05/17 00:06:35;;;;;;;12.27;3.92;;;12.50;66.10;;;;;;5030312;28;20116;-66
2023/05/17 00:09:01;;;;;;;13.65;4.05;;;12.50;66.00;;;;;;5020605;28;20038;-66
2023/05/17 00:11:27;;;;;;;11.40;3.55;;;12.50;65.80;;;;;;5024472;28;20116;-66
2023/05/17 00:13:53;;;;;;;11.18;3.33;;;12.40;65.80;;;;;;5021098;28;20196;-66
2023/05/17 00:16:19;;;;;;;13.48;3.47;;;12.40;65.60;;;;;;5012516;28;20103;-66
2023/05/17 00:18:44;;;;;;;12.77;4.03;;;12.30;65.50;;;;;;5021766;28;20033;-66
2023/05/17 00:21:10;;;;;;;10.95;3.25;;;12.30;65.30;;;;;;5028246;28;20052;-66
2023/05/17 00:23:36;;;;;;;12.43;3.70;;;12.40;65.20;;;;;;5021444;28;20056;-66
2023/05/17 00:26:01;;;;;;;11.85;3.35;;;12.30;65.00;;;;;;5007788;28;20083;-66
2023/05/17 00:28:27;;;;;;;10.75;3.20;;;12.30;64.80;;;;;;5015938;28;20037;-66
2023/05/17 00:30:53;;;;;;;7.72;2.58;;;12.30;64.80;;;;;;5029455;28;20440;-66
2023/05/17 00:33:18;;;;;;;13.18;3.17;;;12.30;64.60;;;;;;5022020;28;20034;-66
2023/05/17 00:35:44;;;;;;;10.85;3.28;;;12.20;64.40;;;;;;5015424;28;20030;-66
2023/05/17 00:38:10;;;;;;;13.30;3.20;;;12.20;64.20;;;;;;5012398;28;20050;-66
2023/05/17 00:40:35;;;;;;;10.65;2.42;;;12.20;64.20;;;;;;5013289;28;20179;-66
2023/05/17 00:43:01;;;;;;;11.30;2.83;;;12.20;64.10;;;;;;5013884;28;20659;-66
2023/05/17 00:45:27;;;;;;;10.63;3.05;;;12.20;64.10;;;;;;5020402;28;20118;-66
2023/05/17 00:47:53;;;;;;;12.38;2.63;;;12.20;64.10;;;;;;4998448;28;20042;-66
2023/05/17 00:50:19;;;;;;;9.20;2.53;;;12.10;64.00;;;;;;5025512;28;20084;-66
2023/05/17 00:52:45;;;;;;;10.65;2.75;;;12.10;63.90;;;;;;5022759;28;20401;-66
2023/05/17 00:55:11;;;;;;;12.93;3.20;;;12.10;63.80;;;;;;5028695;28;20079;-66
2023/05/17 00:57:37;;;;;;;10.38;2.67;;;12.10;63.80;;;;;;5011692;28;20042;-66
2023/05/17 01:00:04;;;;;;;9.65;2.80;;;12.10;63.80;;;;;;5018989;28;20355;-66
2023/05/17 01:02:29;;;;;;;10.10;2.50;;;12.10;63.70;;;;;;5012564;28;20474;-66
2023/05/17 01:04:56;;;;;;;9.73;3.25;;;12.10;63.70;;;;;;5014783;28;20034;-66
2023/05/17 01:07:22;;;;;;;7.88;2.67;;;12.00;63.60;;;;;;5013873;28;20073;-66
2023/05/17 01:09:48;;;;;;;11.57;2.78;;;12.10;63.60;;;;;;5022405;28;20096;-66
2023/05/17 01:12:26;;;;;;;10.40;2.90;;;12.00;63.50;;;;;;5024626;28;20046;-66
2023/05/17 01:14:57;;;;;;;6.75;2.03;;;12.00;63.40;;;;;;5025465;28;20053;-66
2023/05/17 01:17:34;;;;;;;11.95;2.88;;;12.00;63.30;;;;;;5014389;28;20042;-66
2023/05/17 01:20:05;;;;;;;13.48;3.35;;;11.90;63.30;;;;;;5025404;28;20041;-66
2023/05/17 01:22:35;;;;;;;13.57;3.08;;;12.00;63.40;;;;;;5026487;28;20041;-66
2023/05/17 01:25:16;;;;;;;11.77;2.90;;;11.90;63.20;;;;;;5011459;28;20030;-66
2023/05/17 01:27:47;;;;;;;11.27;2.97;;;11.90;63.30;;;;;;5012951;28;20037;-66
2023/05/17 01:30:14;;;;;;;10.38;2.35;;;11.80;63.30;;;;;;5031131;28;20557;-66
2023/05/17 01:32:43;;;;;;;7.00;2.30;;;11.80;63.30;;;;;;5017518;28;20038;-66
2023/05/17 01:35:11;;;;;;;9.70;2.85;;;11.80;63.30;;;;;;5022526;28;20041;-66
2023/05/17 01:37:38;;;;;;;9.60;2.28;;;11.80;63.40;;;;;;5028288;28;20056;-66
2023/05/17 01:40:06;;;;;;;10.15;3.25;;;11.70;63.30;;;;;;5018126;28;20054;-66
2023/05/17 01:42:32;;;;;;;13.05;3.45;;;11.70;63.30;;;;;;5003608;28;20049;-66
2023/05/17 01:45:19;;;;;;;11.30;3.33;;;11.70;63.30;;;;;;5030242;28;20036;-66
2023/05/17 01:47:49;;;;;;;12.23;2.65;;;11.70;63.30;;;;;;5028048;28;20045;-66
2023/05/17 01:50:18;;;;;;;12.68;2.95;;;11.70;63.30;;;;;;5026669;28;20568;-66
2023/05/17 01:52:58;;;;;;;9.63;2.42;;;11.70;63.30;;;;;;5021571;28;20038;-66
2023/05/17 01:55:36;;;;;;;10.57;2.83;;;11.60;63.30;;;;;;5019938;28;20034;-66
2023/05/17 01:58:06;;;;;;;6.25;2.08;;;11.60;63.30;;;;;;5000641;28;20042;-66
2023/05/17 02:00:32;;;;;;;8.27;2.45;;;11.50;63.20;;;;;;5025428;28;20080;-66
2023/05/17 02:02:57;;;;;;;8.65;2.60;;;11.60;63.40;;;;;;5024294;28;20088;-66
2023/05/17 02:05:23;;;;;;;8.32;2.60;;;11.50;63.30;;;;;;5023107;28;20163;-66
2023/05/17 02:07:49;;;;;;;10.80;2.63;;;11.50;63.40;;;;;;5027503;28;20405;-66
2023/05/17 02:10:14;;;;;;;10.77;2.50;;;11.50;63.40;;;;;;5032482;28;20033;-66
2023/05/17 02:12:41;;;;;;;10.38;2.75;;;11.40;63.30;;;;;;5010790;28;20130;-66
2023/05/17 02:15:10;;;;;;;10.18;3.08;;;11.40;63.40;;;;;;5024259;28;20034;-66
2023/05/17 02:17:35;;;;;;;13.93;3.10;;;11.40;63.40;;;;;;5024994;28;20568;-66
2023/05/17 02:20:01;;;;;;;9.68;2.33;;;11.40;63.50;;;;;;5013624;28;20148;-66
2023/05/17 02:22:27;;;;;;;7.63;2.08;;;11.30;63.40;;;;;;5026179;28;20120;-66
2023/05/17 02:24:52;;;;;;;9.43;2.10;;;11.30;63.50;;;;;;5030497;28;20396;-66
2023/05/17 02:27:18;;;;;;;8.38;3.00;;;11.30;63.50;;;;;;5025382;28;20050;-66
2023/05/17 02:29:44;;;;;;;8.65;2.03;;;11.30;63.60;;;;;;4998109;28;20041;-66
2023/05/17 02:32:09;;;;;;;7.80;2.65;;;11.20;63.70;;;;;;5022745;28;20052;-66
2023/05/17 02:34:36;;;;;;;11.95;3.38;;;11.20;63.80;;;;;;5048077;28;20038;-66
2023/05/17 02:37:02;;;;;;;15.52;3.08;;;11.10;63.90;;;;;;5028497;28;20057;-66
2023/05/17 02:39:28;;;;;;;8.75;2.13;;;11.20;64.10;;;;;;5013874;28;20260;-66
2023/05/17 02:41:53;;;;;;;10.20;2.20;;;11.20;64.20;;;;;;5022899;28;20042;-66
2023/05/17 02:44:19;;;;;;;9.52;2.78;;;11.10;64.20;;;;;;5013800;28;20046;-66
2023/05/17 02:46:45;;;;;;;8.38;1.92;;;11.10;64.40;;;;;;5015401;28;20033;-66
2023/05/17 02:49:10;;;;;;;8.00;2.42;;;11.10;64.40;;;;;;5028189;28;20048;-66
2023/05/17 02:51:36;;;;;;;11.98;2.70;;;11.10;64.50;;;;;;5023866;28;20550;-66
2023/05/17 02:54:02;;;;;;;10.95;2.85;;;11.10;64.60;;;;;;4998814;28;20038;-66
2023/05/17 02:56:27;;;;;;;8.80;2.42;;;11.00;64.60;;;;;;5004781;28;20045;-66
2023/05/17 02:58:56;;;;;;;8.80;2.67;;;11.00;64.60;;;;;;5025008;28;20041;-66
2023/05/17 03:01:22;;;;;;;8.30;2.00;;;11.00;64.70;;;;;;5020094;28;20042;-66
2023/05/17 03:03:48;;;;;;;9.15;2.42;;;11.00;64.70;;;;;;5027551;28;20041;-66
2023/05/17 03:06:13;;;;;;;10.48;2.78;;;11.00;64.70;;;;;;5031564;28;20504;-66
2023/05/17 03:08:39;;;;;;;9.80;2.55;;;11.00;64.80;;;;;;5021216;28;20050;-66
2023/05/17 03:11:05;;;;;;;10.65;2.70;;;11.00;64.70;;;;;;5018119;28;20033;-66
2023/05/17 03:13:30;;;;;;;11.80;2.78;;;11.00;64.80;;;;;;5023937;28;20045;-66
2023/05/17 03:15:56;;;;;;;14.73;3.85;;;11.00;64.80;;;;;;5030498;28;20048;-66
2023/05/17 03:18:22;;;;;;;13.48;2.55;;;10.90;64.70;;;;;;5020993;28;20053;-66
2023/05/17 03:20:47;;;;;;;10.80;3.72;;;10.90;64.80;;;;;;5015732;28;20371;-66
2023/05/17 03:23:13;;;;;;;9.52;2.60;;;10.90;64.80;;;;;;5005259;28;20049;-66
2023/05/17 03:25:39;;;;;;;9.98;2.58;;;10.90;64.80;;;;;;5016882;28;20034;-66
2023/05/17 03:28:05;;;;;;;13.32;2.85;;;10.90;64.80;;;;;;5017046;28;20045;-66
2023/05/17 03:30:30;;;;;;;11.40;2.50;;;10.90;64.80;;;;;;5009745;28;20050;-66
2023/05/17 03:32:56;;;;;;;8.90;2.75;;;10.90;64.80;;;;;;5026734;28;20060;-66
2023/05/17 03:35:22;;;;;;;9.73;2.35;;;10.90;64.80;;;;;;5014750;28;20054;-66
2023/05/17 03:37:48;;;;;;;9.35;2.88;;;10.70;64.70;;;;;;5019367;28;20402;-66
2023/05/17 03:40:13;;;;;;;7.70;2.90;;;10.80;64.80;;;;;;5010291;28;20060;-66
2023/05/17 03:42:40;;;;;;;9.98;2.95;;;10.80;64.80;;;;;;5030136;28;20061;-66
2023/05/17 03:45:06;;;;;;;7.18;2.03;;;10.80;64.80;;;;;;5013343;28;20096;-66
2023/05/17 03:47:32;;;;;;;8.82;2.80;;;10.80;64.90;;;;;;5009603;28;20061;-66
2023/05/17 03:49:57;;;;;;;7.05;2.40;;;10.80;64.90;;;;;;5016527;28;20072;-67
2023/05/17 03:52:23;;;;;;;8.35;2.40;;;10.80;64.90;;;;;;5013678;28;20042;-66
2023/05/17 03:54:50;;;;;;;9.85;2.75;;;10.80;65.00;;;;;;5015552;28;20045;-66
2023/05/17 03:57:16;;;;;;;8.40;2.40;;;10.70;65.00;;;;;;5013810;28;20046;-66
2023/05/17 03:59:41;;;;;;;10.93;2.35;;;10.80;65.10;;;;;;5024511;28;20048;-66
2023/05/17 04:02:07;;;;;;;7.97;2.88;;;10.70;65.20;;;;;;5028319;28;20354;-67
2023/05/17 04:04:33;;;;;;;9.57;2.67;;;10.70;65.30;;;;;;5026775;28;20067;-66
2023/05/17 04:06:58;;;;;;;7.70;2.67;;;10.70;65.50;;;;;;5029452;28;20069;-66
2023/05/17 04:09:24;;;;;;;11.40;2.75;;;10.70;65.60;;;;;;5029080;28;20052;-66
2023/05/17 04:11:50;;;;;;;8.57;2.05;;;10.70;65.70;;;;;;5024359;28;20071;-66
2023/05/17 04:14:17;;;;;;;10.90;2.63;;;10.70;65.80;;;;;;5021003;28;20116;-66
2023/05/17 04:16:43;;;;;;;7.38;2.35;;;10.70;66.00;;;;;;5019416;28;20065;-66
2023/05/17 04:19:09;;;;;;;12.05;2.40;;;10.70;66.00;;;;;;5005128;28;20103;-66
2023/05/17 04:21:34;;;;;;;7.47;2.28;;;10.70;66.10;;;;;;5010774;28;20042;-66
2023/05/17 04:24:00;;;;;;;13.90;2.38;;;10.70;66.10;;;;;;5024164;28;20465;-66
2023/05/17 04:26:26;;;;;;;10.95;2.25;;;10.70;66.20;;;;;;5022037;28;20041;-66
2023/05/17 04:28:52;;;;;;;7.88;2.05;;;10.70;66.20;;;;;;5009839;28;20041;-66
2023/05/17 04:31:17;;;;;;;9.32;2.00;;;10.70;66.20;;;;;;4999080;28;20102;-66
2023/05/17 04:33:43;;;;;;;9.73;1.92;;;10.70;66.10;;;;;;5023308;28;20056;-66
2023/05/17 04:36:09;;;;;;;11.73;2.60;;;10.80;66.20;;;;;;5018098;28;20525;-66
2023/05/17 04:38:34;;;;;;;8.80;2.05;;;10.80;66.20;;;;;;5012997;28;20072;-66
2023/05/17 04:41:04;;;;;;;8.80;1.80;;;10.80;66.20;;;;;;5017351;28;20037;-66
2023/05/17 04:43:31;;;;;;;11.07;2.15;;;10.80;66.20;;;;;;5029422;28;20052;-66
2023/05/17 04:45:58;;;;;;;12.20;2.03;;;10.80;66.30;;;;;;5000302;28;20124;-66
2023/05/17 04:48:25;;;;;;;10.45;1.80;;;10.80;66.30;;;;;;5028583;28;20049;-66
2023/05/17 04:50:52;;;;;;;9.43;2.22;;;10.80;66.40;;;;;;5012810;28;20049;-66
2023/05/17 04:53:18;;;;;;;9.90;2.30;;;10.80;66.40;;;;;;5011807;28;20088;-66
2023/05/17 04:55:45;;;;;;;7.70;1.90;;;10.90;66.60;;;;;;5012901;28;20049;-66
2023/05/17 04:58:10;;;;;;;7.07;1.60;;;10.90;66.70;;;;;;5028090;28;20046;-66
2023/05/17 05:00:36;;;;;;;9.13;2.10;;;10.90;66.60;;;;;;5018655;28;20123;-66
2023/05/17 05:03:03;;;;;;;6.97;1.92;;;10.90;66.50;;;;;;4994472;28;20026;-66
2023/05/17 05:05:30;;;;;;;8.68;2.15;;;10.90;66.30;;;;;;5029678;28;20049;-66
2023/05/17 05:07:56;;;;;;;10.43;1.90;;;10.90;66.10;;;;;;5035559;28;20393;-68
2023/05/17 05:10:22;;;;;;;9.45;1.85;;;11.00;65.90;;;;;;5026822;28;20053;-68
2023/05/17 05:12:48;;;;;;;8.88;2.30;;;10.90;65.70;;;;;;5035758;28;20043;-68
2023/05/17 05:15:14;;;;;;;10.63;2.13;;;11.00;65.60;;;;;;5030940;28;20128;-68
2023/05/17 05:17:40;;;;;;;7.30;1.42;;;11.00;65.10;;;;;;5035897;28;20033;-68
2023/05/17 05:20:07;;;;;;;12.20;2.20;;;11.00;64.60;;;;;;5026837;28;20038;-68
2023/05/17 05:22:33;;;;;;;8.48;2.50;;;11.00;64.30;;;;;;5030018;28;20374;-68
2023/05/17 05:24:58;;;;;;;7.25;1.75;;;11.00;64.10;;;;;;5023818;28;20060;-68
2023/05/17 05:27:24;;;;;;;7.97;2.13;;;11.00;63.90;;;;;;5035294;28;20037;-68
2023/05/17 05:29:50;;;;;;;9.15;1.90;;;11.00;63.70;;;;;;5014390;28;20520;-68
2023/05/17 05:32:16;;;;;;;7.70;1.60;;;11.00;63.70;;;;;;5031738;28;20523;-69
2023/05/17 05:34:41;;;;;;;11.13;2.33;;;11.00;63.90;;;;;;5029883;28;20111;-68
2023/05/17 05:37:07;;;;;;;8.98;1.80;;;11.00;64.10;;;;;;5050495;28;20951;-68
2023/05/17 05:39:33;;;;;;;6.13;1.20;;;11.00;64.40;;;;;;5029058;28;20193;-68
2023/05/17 05:41:59;;;;;;;11.35;2.45;;;11.00;64.60;;;;;;5022217;28;20049;-68
2023/05/17 05:44:24;;;;;;;8.00;1.95;;;11.00;64.60;;;;;;5021710;28;20069;-69
2023/05/17 05:46:50;;;;;;;8.88;1.60;;;11.00;64.90;;;;;;5022965;28;20040;-69
2023/05/17 05:49:16;;;;;;;8.38;1.70;;;11.00;65.00;;;;;;5016872;28;20068;-69
2023/05/17 05:51:41;;;;;;;7.63;1.65;;;11.10;65.30;;;;;;5001142;28;20045;-69
2023/05/17 05:54:07;;;;;;;8.50;1.48;;;11.10;65.40;;;;;;5009324;28;20041;-68
2023/05/17 05:56:33;;;;;;;9.27;1.77;;;11.20;65.20;;;;;;5032253;28;20459;-68
2023/05/17 05:58:59;;;;;;;8.80;2.17;;;11.30;64.80;;;;;;5023792;28;20079;-68
2023/05/17 06:01:24;;;;;;;9.50;2.17;;;11.30;64.30;;;;;;5019064;28;20481;-68
2023/05/17 06:03:50;;;;;;;8.60;1.80;;;11.40;63.80;;;;;;5007921;28;20268;-68
2023/05/17 06:06:18;;;;;;;7.47;1.60;;;11.50;63.60;;;;;;5024598;28;20112;-68
2023/05/17 06:08:45;;;;;;;7.18;2.05;;;11.60;63.20;;;;;;5032103;28;20492;-68
2023/05/17 06:11:12;;;;;;;6.78;1.30;;;11.80;63.20;;;;;;5018027;28;20045;-70
2023/05/17 06:13:38;;;;;;;7.68;1.60;;;12.00;63.00;;;;;;5005067;28;20057;-68
2023/05/17 06:16:05;;;;;;;9.05;1.73;;;12.10;62.30;;;;;;5014913;28;20045;-66
2023/05/17 06:18:31;;;;;;;7.25;1.55;;;12.30;61.60;;;;;;5028516;28;20046;-67
2023/05/17 06:20:56;;;;;;;9.77;1.90;;;12.40;60.40;;;;;;5021816;28;20033;-66
2023/05/17 06:23:22;;;;;;;5.97;1.85;;;12.50;60.40;;;;;;5024640;28;20041;-67
2023/05/17 06:25:48;;;;;;;8.25;1.80;;;12.60;60.00;;;;;;5025828;28;20038;-67
2023/05/17 06:28:14;;;;;;;8.32;1.70;;;12.80;59.80;;;;;;5020670;28;20060;-66
2023/05/17 06:30:40;;;;;;;5.85;1.67;;;12.90;59.20;;;;;;5024422;28;20045;-67
2023/05/17 06:33:06;;;;;;;7.75;1.70;;;13.00;58.70;;;;;;5023309;28;20488;-67
2023/05/17 06:35:31;;;;;;;10.13;1.67;;;13.20;58.90;;;;;;5024604;28;20045;-67
2023/05/17 06:37:57;;;;;;;6.13;1.55;;;13.30;58.40;;;;;;5026962;28;20050;-67
2023/05/17 06:40:23;;;;;;;6.13;1.60;;;13.50;58.10;;;;;;5021522;28;20037;-67
2023/05/17 06:42:48;;;;;;;7.15;2.28;;;13.70;57.40;;;;;;5024854;28;20048;-67
2023/05/17 06:45:14;;;;;;;6.68;1.30;;;13.80;56.10;;;;;;5026834;28;20183;-67
2023/05/17 06:47:40;;;;;;;5.38;1.73;;;14.00;56.00;;;;;;5026826;28;20392;-66
2023/05/17 06:50:07;;;;;;;8.25;1.42;;;14.20;55.60;;;;;;5023091;28;20072;-67
2023/05/17 06:52:34;;;;;;;6.18;1.23;;;14.30;55.10;;;;;;5023200;28;20042;-67
2023/05/17 06:55:00;;;;;;;7.07;1.83;;;14.40;54.70;;;;;;5026973;28;20041;-66
2023/05/17 06:57:25;;;;;;;7.05;1.48;;;14.50;54.50;;;;;;5027399;28;20057;-67
2023/05/17 06:59:51;;;;;;;6.50;1.92;;;14.60;54.10;;;;;;5023999;28;20498;-67
2023/05/17 07:02:18;;;;;;;6.90;1.50;;;14.60;53.70;;;;;;5017189;28;20079;-66
2023/05/17 07:04:43;;;;;;;6.57;1.45;;;14.70;53.70;;;;;;5026568;28;20038;-66
2023/05/17 07:07:10;;;;;;;8.35;1.92;;;14.70;53.50;;;;;;5021677;28;20392;-66
2023/05/17 07:09:36;;;;;;;9.48;1.75;;;14.80;53.50;;;;;;5022466;28;20045;-66
2023/05/17 07:12:03;;;;;;;9.35;2.40;;;14.80;53.30;;;;;;5020558;28;20053;-66
2023/05/17 07:14:29;;;;;;;8.43;1.80;;;14.80;51.80;;;;;;5022896;28;20054;-66
2023/05/17 07:16:54;;;;;;;10.63;2.40;;;14.90;51.60;;;;;;5017609;28;20048;-66
2023/05/17 07:19:20;;;;;;;8.05;2.28;;;14.90;50.80;;;;;;5032297;28;20033;-66
2023/05/17 07:21:46;;;;;;;8.60;2.78;;;14.90;50.70;;;;;;5031711;28;20128;-66
2023/05/17 07:24:11;;;;;;;9.20;2.03;;;14.80;50.20;;;;;;5033329;28;20586;-66
2023/05/17 07:26:37;;;;;;;12.52;2.45;;;14.80;50.70;;;;;;5016710;28;20522;-66
2023/05/17 07:29:03;;;;;;;10.25;2.30;;;14.80;50.90;;;;;;5017928;28;20042;-66
2023/05/17 07:31:28;;;;;;;9.73;2.30;;;14.80;50.70;;;;;;4996807;28;20054;-66
2023/05/17 07:33:54;;;;;;;11.70;2.92;;;14.80;50.30;;;;;;5013076;28;20121;-66
2023/05/17 07:36:20;;;;;;;10.32;2.58;;;14.80;49.80;;;;;;5012803;28;20085;-66
2023/05/17 07:38:46;;;;;;;8.55;2.38;;;14.80;49.70;;;;;;5023862;28;20057;-66
2023/05/17 07:41:15;;;;;;;8.82;1.80;;;14.80;49.30;;;;;;5032636;28;20401;-66
2023/05/17 07:43:41;;;;;;;8.00;1.75;;;14.80;49.80;;;;;;5013715;28;20034;-66
2023/05/17 07:46:07;;;;;;;8.65;2.22;;;15.60;50.70;;;;;;5012877;28;20398;-66
2023/05/17 07:48:33;;;;;;;12.60;2.40;;;15.00;49.30;;;;;;5013093;28;20050;-67
2023/05/17 07:50:58;;;;;;;5.72;1.50;;;15.10;47.50;;;;;;5012603;28;20171;-66
2023/05/17 07:53:24;;;;;;;8.27;2.08;;;15.30;47.80;;;;;;5012744;28;20042;-66
2023/05/17 07:55:50;;;;;;;9.35;2.08;;;15.40;47.00;;;;;;5013242;28;20046;-66
2023/05/17 07:58:16;;;;;;;8.80;2.25;;;15.50;46.80;;;;;;5007107;28;20055;-66
2023/05/17 08:00:42;;;;;;;9.75;2.55;;;15.70;45.10;;;;;;5032305;28;20124;-66
2023/05/17 08:03:08;;;;;;;10.90;2.67;;;15.80;44.80;;;;;;5027038;28;20037;-67
2023/05/17 08:05:33;;;;;;;9.07;2.50;;;16.00;43.30;;;;;;5012835;28;20076;-67
2023/05/17 08:07:59;;;;;;;6.40;2.50;;;16.00;44.00;;;;;;5012410;28;20046;-66
2023/05/17 08:10:26;;;;;;;6.13;1.83;;;16.00;43.80;;;;;;4996248;28;20077;-66
2023/05/17 08:12:52;;;;;;;6.05;1.77;;;16.00;44.40;;;;;;5012694;28;20052;-67
2023/05/17 08:15:18;;;;;;;7.72;2.50;;;16.10;44.50;;;;;;5027961;28;20099;-66
2023/05/17 08:17:43;;;;;;;8.13;1.92;;;16.10;44.50;;;;;;5023566;28;20042;-66
2023/05/17 08:20:09;;;;;;;9.73;2.35;;;16.10;44.40;;;;;;5012256;28;20086;-67
2023/05/17 08:22:35;;;;;;;8.43;2.50;;;16.10;44.20;;;;;;5014703;28;20030;-66
2023/05/17 08:25:02;;;;;;;8.50;2.58;;;16.10;43.30;;;;;;5048221;28;20459;-66
2023/05/17 08:27:29;;;;;;;9.77;2.67;;;16.10;43.70;;;;;;5031961;28;20076;-66
2023/05/17 08:29:56;;;;;;;7.05;1.90;;;16.10;44.20;;;;;;5017692;28;20562;-67
2023/05/17 08:32:23;;;;;;;10.05;2.15;;;16.20;44.00;;;;;;5012141;28;20118;-66
2023/05/17 08:34:48;;;;;;;9.82;1.95;;;16.10;43.70;;;;;;5023699;28;20049;-66
2023/05/17 08:37:14;;;;;;;8.85;1.83;;;16.10;43.70;;;;;;5031700;28;20068;-67
2023/05/17 08:39:40;;;;;;;8.30;2.10;;;16.10;44.70;;;;;;5031130;28;20045;-67
2023/05/17 08:42:07;;;;;;;7.85;1.90;;;16.10;44.70;;;;;;5032040;28;20119;-67
2023/05/17 08:44:33;;;;;;;7.43;2.05;;;16.10;44.40;;;;;;5031183;28;20044;-67
2023/05/17 08:46:59;;;;;;;9.10;2.13;;;16.10;43.70;;;;;;5031727;28;20053;-66
2023/05/17 08:49:27;;;;;;;6.68;1.73;;;16.10;43.00;;;;;;5031398;28;20049;-67
2023/05/17 08:51:54;;;;;;;7.50;1.60;;;16.10;42.70;;;;;;5013004;28;20081;-66
2023/05/17 08:54:21;;;;;;;7.97;1.85;;;16.20;43.60;;;;;;5011908;28;20053;-66
2023/05/17 08:56:51;;;;;;;6.10;1.67;;;16.20;42.90;;;;;;5012160;28;20522;-67
2023/05/17 08:59:18;;;;;;;13.88;2.83;;;16.20;42.00;;;;;;5011810;28;20073;-67
2023/05/17 09:01:47;;;;;;;9.98;1.95;;;16.20;42.40;;;;;;5012301;28;20139;-67
2023/05/17 09:04:13;;;;;;;9.85;2.33;;;16.20;43.20;;;;;;4995827;28;20048;-67
2023/05/17 09:06:39;;;;;;;7.45;2.55;;;16.30;43.10;;;;;;5011667;28;20050;-67
2023/05/17 09:09:08;;;;;;;10.02;2.40;;;16.20;43.20;;;;;;4997048;28;20371;-67
2023/05/17 09:11:33;;;;;;;8.25;2.38;;;16.20;43.50;;;;;;5012955;28;20069;-67
2023/05/17 09:14:01;;;;;;;8.93;2.00;;;16.30;43.50;;;;;;5011592;28;20629;-66
2023/05/17 09:16:32;;;;;;;9.15;2.05;;;16.30;43.30;;;;;;5017315;28;20037;-67
2023/05/17 09:18:59;;;;;;;7.95;2.30;;;16.30;43.80;;;;;;5031407;28;20050;-67
2023/05/17 09:21:26;;;;;;;9.80;2.67;;;16.40;44.10;;;;;;5031245;28;20531;-67
2023/05/17 09:23:53;;;;;;;9.63;2.88;;;16.50;44.20;;;;;;5029683;28;20045;-67
2023/05/17 09:26:21;;;;;;;9.75;1.90;;;16.60;43.20;;;;;;5030845;28;20508;-67
2023/05/17 09:28:47;;;;;;;8.48;2.42;;;16.70;42.20;;;;;;5030988;28;20053;-67
2023/05/17 09:31:15;;;;;;;8.93;2.80;;;16.80;42.30;;;;;;5031232;28;20042;-67
2023/05/17 09:33:49;;;;;;;8.10;2.42;;;16.90;42.10;;;;;;5031192;28;20523;-67
2023/05/17 09:36:22;;;;;;;10.27;2.65;;;17.00;43.60;;;;;;5008636;28;20093;-66
2023/05/17 09:38:57;;;;;;;10.98;2.28;;;17.10;43.00;;;;;;4994962;28;20097;-67
2023/05/17 09:41:26;;;;;;;7.07;2.83;;;17.10;41.70;;;;;;5005175;28;20042;-67
2023/05/17 09:43:51;;;;;;;6.35;1.83;;;17.20;42.20;;;;;;5032029;28;20065;-66
2023/05/17 09:46:19;;;;;;;7.82;1.98;;;17.30;42.10;;;;;;4998417;28;20069;-66
2023/05/17 09:48:45;;;;;;;9.85;2.08;;;17.40;42.10;;;;;;5031031;28;20124;-66
2023/05/17 09:51:12;;;;;;;8.43;2.22;;;17.50;41.50;;;;;;5033367;28;20060;-67
2023/05/17 09:53:39;;;;;;;9.00;2.65;;;17.50;40.90;;;;;;5033048;28;20045;-66
2023/05/17 09:56:06;;;;;;;9.27;2.33;;;17.60;40.80;;;;;;5015206;28;20049;-67
2023/05/17 09:58:33;;;;;;;8.70;1.88;;;17.50;40.00;;;;;;5019612;28;20068;-66
2023/05/17 10:01:05;;;;;;;9.27;2.65;;;17.50;41.10;;;;;;5034871;28;20111;-66
2023/05/17 10:03:34;;;;;;;7.90;1.95;;;17.50;42.20;;;;;;5025959;28;20132;-67
2023/05/17 10:06:04;;;;;;;10.27;2.55;;;17.50;42.30;;;;;;5014698;28;20038;-66
2023/05/17 10:08:32;;;;;;;6.43;2.70;;;17.50;42.80;;;;;;5015929;28;20133;-66
2023/05/17 10:11:06;;;;;;;11.93;2.55;;;17.50;42.90;;;;;;5014915;28;20092;-67
2023/05/17 10:13:40;;;;;;;7.97;2.33;;;17.60;42.50;;;;;;5019611;28;20116;-66
2023/05/17 10:16:06;;;;;;;9.68;2.50;;;17.60;42.20;;;;;;5034701;28;20128;-66
2023/05/17 10:18:32;;;;;;;12.40;2.58;;;17.50;42.10;;;;;;5002696;28;20042;-66
2023/05/17 10:21:00;;;;;;;8.13;3.00;;;17.50;42.70;;;;;;5026074;28;20037;-67
2023/05/17 10:23:28;;;;;;;10.45;2.42;;;17.50;43.00;;;;;;5034239;28;20050;-66
2023/05/17 10:25:54;;;;;;;17.25;4.22;;;17.50;41.60;;;;;;5034408;28;20045;-66
2023/05/17 10:28:21;;;;;;;8.75;2.00;;;17.40;41.90;;;;;;5017659;28;20041;-66
2023/05/17 10:30:49;;;;;;;9.13;2.80;;;17.30;42.30;;;;;;5024401;28;20050;-67
2023/05/17 10:33:17;;;;;;;6.50;2.17;;;17.30;41.90;;;;;;5015537;28;20632;-66
2023/05/17 10:35:44;;;;;;;6.95;2.17;;;17.30;42.00;;;;;;5015491;28;20133;-67
2023/05/17 10:38:13;;;;;;;7.47;1.90;;;17.40;41.70;;;;;;5014720;28;20512;-66
2023/05/17 10:40:40;;;;;;;11.55;2.70;;;17.40;41.20;;;;;;5014092;28;20048;-66
2023/05/17 10:43:08;;;;;;;10.93;2.40;;;17.50;41.30;;;;;;5014127;28;20543;-66
2023/05/17 10:45:35;;;;;;;10.88;2.65;;;17.50;41.00;;;;;;5014010;28;20046;-66
2023/05/17 10:48:05;;;;;;;7.97;2.47;;;17.50;40.60;;;;;;5018487;28;20043;-66
2023/05/17 10:50:31;;;;;;;8.88;1.80;;;17.40;40.70;;;;;;5031891;28;20481;-66
2023/05/17 10:52:58;;;;;;;9.35;2.47;;;17.40;41.00;;;;;;5033719;28;20493;-66
2023/05/17 10:55:46;;;;;;;10.27;2.40;;;17.40;40.70;;;;;;5033312;28;20040;-66
2023/05/17 10:58:18;;;;;;;7.70;1.95;;;17.40;39.70;;;;;;5013566;28;20490;-66
2023/05/17 11:00:54;;;;;;;7.93;2.83;;;17.40;40.90;;;;;;5014966;28;20046;-66
2023/05/17 11:03:21;;;;;;;9.73;2.55;;;17.50;40.40;;;;;;5013383;28;20057;-66
2023/05/17 11:06:09;;;;;;;7.68;1.83;;;17.60;39.40;;;;;;5016293;28;20038;-66
2023/05/17 11:08:35;;;;;;;7.25;1.83;;;17.60;40.40;;;;;;5031892;28;20041;-66
2023/05/17 11:11:08;;;;;;;7.65;2.25;;;17.50;40.10;;;;;;5033596;28;20052;-67
2023/05/17 11:13:33;;;;;;;7.40;2.05;;;17.60;40.50;;;;;;5033326;28;20423;-66
2023/05/17 11:16:20;;;;;;;6.38;1.85;;;17.60;40.50;;;;;;5028863;28;20125;-72
2023/05/17 11:18:54;;;;;;;7.40;2.60;;;17.60;39.90;;;;;;5013436;28;20041;-72
2023/05/17 11:21:21;;;;;;;10.52;2.10;;;17.70;39.60;;;;;;5013517;28;20385;-72
2023/05/17 11:23:52;;;;;;;6.88;2.10;;;17.60;39.80;;;;;;5019803;28;20048;-72
2023/05/17 11:26:32;;;;;;;6.57;1.88;;;17.60;39.00;;;;;;5021493;28;20521;-72
2023/05/17 11:29:05;;;;;;;6.03;1.67;;;17.70;39.60;;;;;;5018533;28;20041;-72
2023/05/17 11:31:35;;;;;;;8.73;2.05;;;17.70;38.60;;;;;;5029184;28;20069;-72
2023/05/17 11:34:04;;;;;;;7.88;1.85;;;17.60;36.80;;;;;;5032952;28;20081;-72
2023/05/17 11:36:30;;;;;;;6.03;1.60;;;17.50;37.80;;;;;;5032744;28;20563;-72
2023/05/17 11:39:11;;;;;;;7.47;2.10;;;17.50;38.80;;;;;;5016402;28;20061;-72
2023/05/17 11:41:47;;;;;;;6.43;1.73;;;17.60;38.40;;;;;;5014596;28;20049;-72
2023/05/17 11:44:14;;;;;;;6.75;1.83;;;17.60;38.00;;;;;;5032677;28;20045;-72
2023/05/17 11:46:40;;;;;;;6.80;1.35;;;17.70;38.10;;;;;;5032875;28;20045;-72
2023/05/17 11:49:06;;;;;;;5.13;1.40;;;17.70;38.60;;;;;;5016481;28;20573;-69
2023/05/17 11:51:32;;;;;;;8.00;1.95;;;17.70;37.30;;;;;;5002276;28;20045;-70
2023/05/17 11:54:02;;;;;;;7.45;2.33;;;17.60;36.70;;;;;;5032630;28;20409;-70
2023/05/17 11:56:37;;;;;;;6.75;1.48;;;17.50;36.70;;;;;;5022989;28;20493;-69
2023/05/17 11:59:03;;;;;;;7.30;2.13;;;17.50;37.30;;;;;;5012645;28;20113;-70
2023/05/17 12:01:44;;;;;;;4.68;1.80;;;17.50;37.60;;;;;;5013058;28;20078;-70
2023/05/17 12:04:10;;;;;;;6.30;1.60;;;17.60;37.60;;;;;;5013832;28;20049;-69
2023/05/17 12:06:37;;;;;;;6.22;1.98;;;17.70;37.70;;;;;;5005005;28;20060;-70
2023/05/17 12:09:04;;;;;;;10.48;1.98;;;17.80;38.10;;;;;;5031582;28;20050;-70
2023/05/17 12:11:30;;;;;;;9.70;1.98;;;17.90;36.80;;;;;;5019030;28;20050;-71
2023/05/17 12:13:56;;;;;;;8.88;1.88;;;18.00;36.70;;;;;;5011732;28;20033;-70
2023/05/17 12:16:23;;;;;;;9.30;2.05;;;18.00;37.10;;;;;;5012512;28;20509;-70
2023/05/17 12:18:50;;;;;;;7.25;2.80;;;18.10;36.90;;;;;;5017644;28;20057;-70
2023/05/17 12:21:17;;;;;;;8.35;2.33;;;18.10;37.30;;;;;;5005402;28;20439;-69
2023/05/17 12:23:45;;;;;;;9.35;2.65;;;18.20;37.00;;;;;;5032349;28;20473;-70
2023/05/17 12:26:11;;;;;;;9.77;2.35;;;18.30;37.20;;;;;;5016036;28;20049;-69
2023/05/17 12:28:39;;;;;;;6.07;1.95;;;18.20;37.30;;;;;;5012284;28;20409;-69
2023/05/17 12:31:20;;;;;;;6.68;1.70;;;18.20;37.50;;;;;;5012174;28;20042;-70
2023/05/17 12:33:49;;;;;;;6.07;2.10;;;18.30;37.40;;;;;;5012199;28;20050;-70
2023/05/17 12:36:16;;;;;;;11.70;2.90;;;18.30;38.00;;;;;;5002658;28;20515;-70
2023/05/17 12:38:43;;;;;;;6.90;2.10;;;18.40;37.80;;;;;;5012486;28;20053;-70
2023/05/17 12:41:14;;;;;;;7.00;1.88;;;18.40;37.60;;;;;;5012089;28;20081;-70
2023/05/17 12:43:40;;;;;;;5.43;1.80;;;18.50;37.20;;;;;;5012369;28;20034;-70